Time;durP1;ratioP1;P1;durP2;ratioP2;P2;SDS_P1;SDS_P2;PMS_P1;PMS_P2;Temp;Humidity;BMP_temperature;BMP_pressure;BME280_temperature;BME280_humidity;BME280_pressure;Samples;Min_cycle;Max_cycle;Signal;HPM_P1;HPM_P2
2021/04/07 00:00:36;;;;;;;7.43;3.70;;;23.60;88.60;;;;;;5039288;28;20102;-59
2021/04/07 00:03:04;;;;;;;6.38;5.43;;;23.80;88.00;;;;;;5034013;28;20041;-61
2021/04/07 00:05:43;;;;;;;11.80;5.60;;;23.80;85.80;;;;;;5023099;28;20405;-57
2021/04/07 00:08:16;;;;;;;8.23;4.35;;;24.10;87.60;;;;;;5047456;28;20104;-62
2021/04/07 00:10:44;;;;;;;8.82;4.70;;;24.30;84.60;;;;;;5030214;28;20129;-67
2021/04/07 00:13:15;;;;;;;7.63;4.00;;;24.30;87.40;;;;;;5047746;28;20040;-60
2021/04/07 00:15:45;;;;;;;13.88;9.70;;;24.70;86.10;;;;;;5050362;28;20029;-57
2021/04/07 00:18:13;;;;;;;27.63;15.57;;;24.50;87.30;;;;;;5034010;28;20079;-62
2021/04/07 00:20:41;;;;;;;6.43;4.28;;;24.80;84.40;;;;;;5051824;28;20068;-62
2021/04/07 00:23:08;;;;;;;14.80;8.77;;;24.90;84.00;;;;;;5051893;28;20037;-63
2021/04/07 00:25:37;;;;;;;12.20;4.18;;;24.80;85.70;;;;;;5051838;28;20086;-61
2021/04/07 00:28:06;;;;;;;7.93;5.88;;;25.10;81.80;;;;;;5051610;28;20044;-60
2021/04/07 00:30:36;;;;;;;5.65;3.70;;;25.20;84.40;;;;;;5051760;28;20028;-66
2021/04/07 00:33:04;;;;;;;15.40;4.78;;;25.00;80.40;;;;;;5033864;28;20039;-58
2021/04/07 00:35:32;;;;;;;6.07;3.30;;;25.00;85.70;;;;;;5051443;28;20029;-66
2021/04/07 00:37:59;;;;;;;6.75;4.38;;;25.00;85.60;;;;;;5051459;28;20025;-65
2021/04/07 00:40:27;;;;;;;5.20;3.97;;;25.10;85.50;;;;;;5016982;28;20437;-67
2021/04/07 00:42:56;;;;;;;4.78;3.05;;;25.30;84.40;;;;;;5051628;28;20036;-66
2021/04/07 00:45:27;;;;;;;5.07;3.78;;;25.30;83.90;;;;;;5051795;28;20050;-71
2021/04/07 00:47:56;;;;;;;5.10;2.23;;;25.30;83.30;;;;;;5051290;28;20029;-67
2021/04/07 00:50:26;;;;;;;7.82;3.25;;;25.50;77.50;;;;;;5051555;28;20277;-69
2021/04/07 00:52:54;;;;;;;8.15;3.67;;;25.70;80.90;;;;;;5051382;28;20036;-65
2021/04/07 00:55:32;;;;;;;4.63;2.47;;;25.40;84.90;;;;;;5051337;28;20047;-64
2021/04/07 00:58:00;;;;;;;6.20;2.83;;;25.70;76.70;;;;;;5050836;28;20108;-58
2021/04/07 01:00:31;;;;;;;4.75;2.97;;;25.80;82.50;;;;;;5050689;28;20502;-61
2021/04/07 01:03:01;;;;;;;4.43;1.77;;;25.40;83.20;;;;;;5051316;28;20025;-56
2021/04/07 01:05:29;;;;;;;5.88;2.30;;;25.40;84.00;;;;;;5051248;28;20031;-59
2021/04/07 01:07:58;;;;;;;5.90;2.75;;;25.30;84.30;;;;;;5050821;28;20105;-63
2021/04/07 01:10:26;;;;;;;7.65;2.55;;;25.30;86.10;;;;;;5049428;28;20123;-60
2021/04/07 01:12:57;;;;;;;8.38;2.53;;;25.20;86.00;;;;;;5050974;28;20028;-64
2021/04/07 01:15:28;;;;;;;7.38;2.70;;;25.30;84.10;;;;;;5051160;28;20021;-62
2021/04/07 01:17:57;;;;;;;11.02;2.92;;;25.40;84.60;;;;;;5033040;28;20036;-65
2021/04/07 01:20:26;;;;;;;4.97;1.77;;;25.50;86.30;;;;;;5051413;28;20025;-65
2021/04/07 01:23:03;;;;;;;8.65;1.98;;;25.50;84.20;;;;;;5051158;28;20025;-64
2021/04/07 01:25:31;;;;;;;7.00;2.30;;;25.40;85.70;;;;;;5050583;28;20111;-65
2021/04/07 01:28:00;;;;;;;12.10;2.30;;;25.40;84.70;;;;;;5050515;28;20076;-64
2021/04/07 01:30:28;;;;;;;7.38;1.92;;;25.40;84.90;;;;;;5050550;28;20031;-65
2021/04/07 01:32:56;;;;;;;6.00;2.22;;;25.40;84.80;;;;;;5050504;28;20059;-62
2021/04/07 01:35:23;;;;;;;4.30;1.70;;;25.50;85.90;;;;;;5032852;28;20374;-65
2021/04/07 01:37:54;;;;;;;13.52;1.80;;;25.50;85.10;;;;;;5050360;28;20395;-65
2021/04/07 01:40:21;;;;;;;7.18;1.77;;;25.50;85.60;;;;;;5050468;28;20376;-64
2021/04/07 01:42:50;;;;;;;6.13;1.25;;;25.50;84.30;;;;;;5050311;28;20064;-65
2021/04/07 01:45:18;;;;;;;9.80;1.70;;;25.60;85.70;;;;;;5032770;28;20031;-66
2021/04/07 01:47:46;;;;;;;8.90;1.73;;;25.70;85.80;;;;;;5050340;28;20482;-65
2021/04/07 01:50:14;;;;;;;10.57;2.60;;;25.80;85.50;;;;;;5050567;28;20474;-65
2021/04/07 01:52:42;;;;;;;4.63;1.63;;;25.90;85.20;;;;;;5050536;28;20051;-64
2021/04/07 01:55:10;;;;;;;6.10;1.50;;;25.90;87.00;;;;;;5050112;28;20051;-65
2021/04/07 01:57:39;;;;;;;5.80;1.40;;;26.00;87.30;;;;;;5050021;28;20035;-64
2021/04/07 02:00:11;;;;;;;35.13;31.08;;;26.00;86.10;;;;;;5050016;28;20748;-65
2021/04/07 02:02:39;;;;;;;12.90;6.38;;;26.10;87.30;;;;;;5050312;28;20033;-64
2021/04/07 02:05:07;;;;;;;10.45;5.60;;;26.10;86.60;;;;;;5049969;28;20033;-64
2021/04/07 02:07:35;;;;;;;5.22;2.03;;;26.10;85.20;;;;;;5049908;28;20043;-63
2021/04/07 02:10:07;;;;;;;6.78;2.58;;;26.20;84.00;;;;;;5038050;28;20489;-63
2021/04/07 02:12:34;;;;;;;7.75;3.28;;;26.00;86.00;;;;;;5040846;28;20033;-60
2021/04/07 02:15:08;;;;;;;14.43;3.55;;;25.80;86.90;;;;;;5041462;28;20104;-65
2021/04/07 02:17:35;;;;;;;14.70;4.07;;;25.80;87.20;;;;;;5039883;28;20108;-61
2021/04/07 02:20:03;;;;;;;6.97;3.47;;;25.80;88.40;;;;;;5020626;28;20032;-57
2021/04/07 02:22:31;;;;;;;5.10;3.05;;;25.80;86.70;;;;;;5036442;28;20055;-60
2021/04/07 02:24:59;;;;;;;5.72;3.03;;;26.00;84.70;;;;;;5037839;28;20040;-60
2021/04/07 02:27:26;;;;;;;5.47;3.15;;;26.10;84.10;;;;;;5038241;28;20041;-58
2021/04/07 02:29:56;;;;;;;4.03;2.83;;;26.10;84.90;;;;;;5042823;28;20029;-56
2021/04/07 02:32:25;;;;;;;7.05;3.63;;;26.20;84.90;;;;;;5019174;28;20115;-57
2021/04/07 02:34:53;;;;;;;6.78;4.88;;;26.20;84.00;;;;;;5018940;28;20035;-60
2021/04/07 02:37:21;;;;;;;6.63;4.45;;;26.30;85.10;;;;;;5041032;28;20037;-60
2021/04/07 02:39:49;;;;;;;9.55;4.75;;;26.30;85.20;;;;;;5041527;28;20029;-61
2021/04/07 02:42:18;;;;;;;8.00;5.13;;;26.30;85.30;;;;;;5036278;28;20049;-61
2021/04/07 02:44:46;;;;;;;9.40;4.10;;;26.40;84.40;;;;;;5037755;28;20022;-58
2021/04/07 02:47:13;;;;;;;4.85;3.38;;;26.40;84.10;;;;;;5038358;28;20033;-60
2021/04/07 02:49:41;;;;;;;5.93;3.60;;;26.60;82.80;;;;;;5040298;28;20036;-63
2021/04/07 02:52:08;;;;;;;10.93;4.70;;;26.60;83.10;;;;;;5040516;28;20419;-61
2021/04/07 02:54:36;;;;;;;6.70;4.03;;;26.50;84.00;;;;;;5035588;28;20024;-69
2021/04/07 02:57:07;;;;;;;7.68;3.83;;;26.60;83.40;;;;;;5034708;28;20033;-68
2021/04/07 02:59:35;;;;;;;7.07;4.90;;;26.70;83.00;;;;;;5025690;28;20033;-60
2021/04/07 03:02:06;;;;;;;5.35;4.07;;;26.60;83.30;;;;;;5019145;28;20025;-66
2021/04/07 03:04:34;;;;;;;4.22;3.83;;;26.70;82.70;;;;;;5020781;28;20059;-60
2021/04/07 03:07:01;;;;;;;7.10;4.18;;;26.70;80.70;;;;;;5017840;28;20077;-66
2021/04/07 03:09:30;;;;;;;8.05;4.95;;;26.70;83.30;;;;;;5042766;28;20025;-65
2021/04/07 03:12:00;;;;;;;7.32;4.60;;;26.70;83.20;;;;;;5033696;28;20136;-59
2021/04/07 03:14:27;;;;;;;6.72;5.07;;;26.70;81.00;;;;;;5036386;28;20040;-64
2021/04/07 03:16:57;;;;;;;8.70;5.40;;;26.80;82.60;;;;;;5034146;28;20083;-60
2021/04/07 03:19:25;;;;;;;6.57;4.90;;;26.70;82.50;;;;;;5038502;28;20053;-62
2021/04/07 03:21:52;;;;;;;8.32;3.38;;;26.70;82.00;;;;;;5022655;28;20029;-52
2021/04/07 03:24:20;;;;;;;5.20;4.65;;;26.70;80.60;;;;;;5039281;28;20051;-57
2021/04/07 03:26:47;;;;;;;7.55;5.68;;;26.70;83.10;;;;;;5033417;28;20064;-57
2021/04/07 03:29:14;;;;;;;6.68;4.57;;;26.70;82.00;;;;;;5043108;28;20921;-67
2021/04/07 03:31:42;;;;;;;5.38;4.68;;;26.70;82.80;;;;;;5041438;28;20025;-66
2021/04/07 03:34:09;;;;;;;9.70;5.65;;;26.70;83.20;;;;;;5037095;28;20033;-61
2021/04/07 03:36:37;;;;;;;14.05;5.88;;;26.70;82.80;;;;;;5041656;28;20125;-60
2021/04/07 03:39:06;;;;;;;12.43;5.80;;;26.80;82.80;;;;;;5031335;28;20105;-57
2021/04/07 03:41:34;;;;;;;10.57;5.80;;;26.80;81.40;;;;;;5039816;28;20057;-58
2021/04/07 03:44:01;;;;;;;10.68;5.22;;;26.80;80.90;;;;;;5039991;28;20038;-62
2021/04/07 03:46:29;;;;;;;12.55;5.45;;;26.90;82.20;;;;;;5035651;28;20029;-63
2021/04/07 03:48:57;;;;;;;11.25;5.20;;;26.80;82.60;;;;;;5040721;28;20029;-66
2021/04/07 03:51:24;;;;;;;9.68;5.20;;;26.80;79.80;;;;;;5042361;28;20037;-67
2021/04/07 03:53:52;;;;;;;9.18;5.10;;;26.80;81.70;;;;;;5043108;28;20037;-59
2021/04/07 03:56:20;;;;;;;11.48;5.45;;;26.70;82.20;;;;;;5036487;28;20025;-60
2021/04/07 03:58:48;;;;;;;10.05;5.28;;;26.70;81.10;;;;;;5041192;28;20040;-59
2021/04/07 04:01:15;;;;;;;9.52;4.82;;;26.80;82.10;;;;;;5030893;28;20125;-63
2021/04/07 04:03:43;;;;;;;12.80;6.85;;;26.70;80.50;;;;;;5039014;28;20544;-59
2021/04/07 04:06:12;;;;;;;10.27;5.55;;;26.60;83.20;;;;;;5042940;28;20033;-57
2021/04/07 04:08:40;;;;;;;9.52;5.68;;;26.50;83.80;;;;;;5039737;28;20107;-61
2021/04/07 04:11:07;;;;;;;12.80;5.45;;;26.50;83.90;;;;;;5037814;28;20472;-71
2021/04/07 04:13:35;;;;;;;12.88;5.68;;;26.40;84.30;;;;;;5021043;28;20032;-52
2021/04/07 04:16:03;;;;;;;10.88;5.10;;;26.30;83.50;;;;;;5037666;28;20554;-52
2021/04/07 04:18:30;;;;;;;8.57;4.90;;;26.30;84.50;;;;;;5020708;28;20025;-61
2021/04/07 04:20:57;;;;;;;6.13;4.40;;;26.30;83.30;;;;;;5038138;28;20079;-56
2021/04/07 04:23:25;;;;;;;7.70;4.88;;;26.20;84.30;;;;;;5037779;28;20426;-57
2021/04/07 04:25:53;;;;;;;8.93;4.38;;;26.10;84.90;;;;;;5044761;28;20028;-63
2021/04/07 04:28:20;;;;;;;12.00;4.53;;;26.10;85.20;;;;;;5051758;28;20083;-59
2021/04/07 04:30:48;;;;;;;8.07;3.92;;;26.00;85.30;;;;;;5050629;28;20037;-60
2021/04/07 04:33:15;;;;;;;12.25;4.35;;;25.90;85.90;;;;;;5051719;28;20033;-61
2021/04/07 04:35:43;;;;;;;6.75;3.95;;;25.80;86.20;;;;;;5051344;28;20052;-65
2021/04/07 04:38:10;;;;;;;6.28;3.25;;;25.70;86.40;;;;;;5051682;28;20082;-64
2021/04/07 04:40:38;;;;;;;6.70;3.72;;;25.60;86.80;;;;;;5033542;28;20033;-63
2021/04/07 04:43:06;;;;;;;6.93;3.70;;;25.60;86.80;;;;;;5051761;28;20482;-64
2021/04/07 04:45:34;;;;;;;7.13;2.88;;;25.60;87.10;;;;;;5051750;28;20041;-62
2021/04/07 04:48:02;;;;;;;7.93;3.80;;;25.50;86.40;;;;;;5051850;28;20071;-61
2021/04/07 04:50:29;;;;;;;7.78;4.13;;;25.50;86.70;;;;;;5051248;28;20032;-68
2021/04/07 04:52:56;;;;;;;6.20;3.20;;;25.40;87.00;;;;;;5050749;28;20032;-60
2021/04/07 04:55:24;;;;;;;8.35;3.70;;;25.40;87.40;;;;;;5051528;28;20094;-68
2021/04/07 04:57:54;;;;;;;9.50;3.33;;;25.40;88.00;;;;;;5051193;28;20029;-63
2021/04/07 05:00:21;;;;;;;5.72;3.22;;;25.40;88.10;;;;;;5050449;28;20063;-60
2021/04/07 05:02:49;;;;;;;7.80;3.05;;;25.30;88.20;;;;;;5051379;28;20039;-72
2021/04/07 05:05:16;;;;;;;10.48;3.35;;;25.30;88.60;;;;;;5051120;28;20035;-61
2021/04/07 05:07:44;;;;;;;6.80;3.05;;;25.20;88.30;;;;;;5033463;28;20040;-68
2021/04/07 05:10:12;;;;;;;6.53;2.67;;;25.20;88.50;;;;;;5051067;28;20078;-58
2021/04/07 05:12:40;;;;;;;6.03;3.30;;;25.20;88.80;;;;;;5050800;28;20039;-66
2021/04/07 05:15:11;;;;;;;6.60;2.78;;;25.20;89.00;;;;;;5032255;28;20025;-63
2021/04/07 05:17:38;;;;;;;8.27;3.50;;;25.20;88.80;;;;;;5050980;28;20052;-58
2021/04/07 05:20:07;;;;;;;6.63;2.67;;;25.20;88.90;;;;;;5050761;28;20033;-67
2021/04/07 05:22:35;;;;;;;5.40;3.08;;;25.20;88.70;;;;;;5050844;28;20029;-62
2021/04/07 05:25:03;;;;;;;6.05;2.78;;;25.10;88.90;;;;;;5032295;28;20028;-64
2021/04/07 05:27:31;;;;;;;7.65;2.88;;;25.10;89.00;;;;;;5050842;28;20098;-67
2021/04/07 05:30:01;;;;;;;5.97;2.60;;;25.10;88.90;;;;;;5050778;28;20059;-65
2021/04/07 05:32:28;;;;;;;9.20;2.53;;;25.10;88.90;;;;;;5050815;28;20416;-56
2021/04/07 05:34:56;;;;;;;5.90;2.42;;;25.10;89.20;;;;;;5032037;28;20039;-67
2021/04/07 05:37:23;;;;;;;5.53;2.33;;;25.00;89.20;;;;;;5050683;28;20513;-62
2021/04/07 05:39:51;;;;;;;4.35;2.60;;;25.00;89.10;;;;;;5050668;28;20029;-60
2021/04/07 05:42:19;;;;;;;5.30;2.55;;;25.00;89.10;;;;;;5050416;28;20056;-63
2021/04/07 05:44:46;;;;;;;4.72;2.10;;;25.00;89.10;;;;;;5050407;28;20099;-63
2021/04/07 05:47:13;;;;;;;12.93;4.47;;;24.90;89.00;;;;;;5050736;28;20029;-62
2021/04/07 05:49:41;;;;;;;4.75;2.53;;;24.90;88.90;;;;;;5043546;28;20483;-63
2021/04/07 05:52:11;;;;;;;6.68;2.80;;;24.90;89.10;;;;;;5038619;28;20072;-57
2021/04/07 05:54:39;;;;;;;10.40;2.80;;;24.90;89.10;;;;;;5039485;28;20017;-53
2021/04/07 05:57:06;;;;;;;6.43;2.30;;;24.90;89.30;;;;;;5034282;28;20029;-59
2021/04/07 05:59:34;;;;;;;3.30;2.13;;;24.90;89.50;;;;;;5037076;28;20079;-60
2021/04/07 06:02:02;;;;;;;4.10;1.83;;;24.90;89.30;;;;;;5040134;28;20537;-55
2021/04/07 06:04:29;;;;;;;4.35;2.05;;;24.90;89.10;;;;;;5033038;28;20534;-60
2021/04/07 06:06:57;;;;;;;6.75;2.72;;;24.90;89.60;;;;;;5040894;28;20064;-60
2021/04/07 06:09:27;;;;;;;4.93;2.25;;;24.90;89.30;;;;;;5020130;28;20044;-55
2021/04/07 06:11:54;;;;;;;5.63;2.22;;;24.90;89.50;;;;;;5041805;28;20501;-59
2021/04/07 06:14:23;;;;;;;6.05;2.33;;;24.90;89.40;;;;;;5040941;28;20029;-53
2021/04/07 06:16:51;;;;;;;6.30;1.98;;;24.90;89.50;;;;;;5041065;28;20044;-58
2021/04/07 06:19:18;;;;;;;3.67;2.15;;;24.90;89.50;;;;;;5044283;28;20033;-57
2021/04/07 06:21:46;;;;;;;4.30;1.98;;;24.90;89.30;;;;;;5039673;28;20547;-49
2021/04/07 06:24:13;;;;;;;4.63;1.92;;;24.90;89.20;;;;;;5038313;28;20100;-61
2021/04/07 06:26:40;;;;;;;3.30;1.83;;;24.90;89.50;;;;;;5042709;28;20028;-59
2021/04/07 06:29:09;;;;;;;5.70;2.35;;;24.90;89.40;;;;;;5037705;28;20043;-63
2021/04/07 06:31:36;;;;;;;5.38;1.75;;;24.80;89.30;;;;;;5036298;28;20091;-56
2021/04/07 06:34:04;;;;;;;4.32;1.55;;;24.80;89.50;;;;;;5040238;28;20584;-60
2021/04/07 06:36:31;;;;;;;3.97;1.52;;;24.80;89.60;;;;;;5010960;28;20034;-62
2021/04/07 06:38:59;;;;;;;2.72;1.67;;;24.80;89.70;;;;;;5032464;28;20474;-70
2021/04/07 06:41:26;;;;;;;6.15;1.98;;;24.80;89.70;;;;;;5029143;28;20127;-69
2021/04/07 06:43:56;;;;;;;4.00;1.77;;;24.70;90.00;;;;;;5029508;28;20037;-68
2021/04/07 06:46:24;;;;;;;3.13;1.33;;;24.70;88.90;;;;;;5042228;28;20028;-66
2021/04/07 06:48:54;;;;;;;4.90;1.60;;;24.70;88.20;;;;;;5048448;28;20091;-65
2021/04/07 06:51:22;;;;;;;4.78;1.58;;;24.70;88.40;;;;;;5048913;28;20562;-65
2021/04/07 06:53:51;;;;;;;6.35;3.00;;;24.70;89.60;;;;;;5048796;28;20119;-61
2021/04/07 06:56:22;;;;;;;5.13;3.15;;;24.60;89.50;;;;;;5030313;28;20052;-69
2021/04/07 06:58:50;;;;;;;14.45;5.35;;;24.60;89.90;;;;;;5048303;28;20029;-59
2021/04/07 07:01:18;;;;;;;14.40;7.93;;;24.60;90.10;;;;;;5048553;28;20053;-66
2021/04/07 07:03:45;;;;;;;12.13;8.25;;;24.70;90.10;;;;;;5048606;28;20111;-58
2021/04/07 07:06:14;;;;;;;5.32;3.92;;;24.70;89.00;;;;;;5031125;28;20032;-65
2021/04/07 07:08:41;;;;;;;5.53;3.90;;;24.70;89.60;;;;;;5028727;28;20064;-62
2021/04/07 07:11:17;;;;;;;7.30;5.15;;;24.70;89.70;;;;;;5046755;28;20028;-62
2021/04/07 07:13:45;;;;;;;8.70;7.20;;;24.80;89.70;;;;;;5047774;28;20116;-59
2021/04/07 07:16:16;;;;;;;13.90;9.07;;;24.80;90.00;;;;;;5048666;28;20180;-64
2021/04/07 07:18:44;;;;;;;9.43;5.93;;;24.80;89.30;;;;;;5048279;28;20017;-62
2021/04/07 07:21:16;;;;;;;8.30;6.18;;;24.80;89.40;;;;;;5048374;28;20029;-64
2021/04/07 07:23:46;;;;;;;12.32;11.02;;;24.80;89.90;;;;;;5049922;28;20116;-61
2021/04/07 07:26:15;;;;;;;7.82;4.88;;;24.80;89.60;;;;;;5052566;28;20028;-67
2021/04/07 07:28:53;;;;;;;8.40;3.92;;;24.80;90.00;;;;;;5052459;28;20041;-71
2021/04/07 07:31:25;;;;;;;6.22;3.13;;;24.80;89.80;;;;;;5052758;28;20099;-65
2021/04/07 07:33:54;;;;;;;7.63;2.63;;;24.80;90.10;;;;;;5052860;28;20083;-60
2021/04/07 07:36:23;;;;;;;7.07;2.40;;;24.80;89.80;;;;;;5052894;28;20101;-60
2021/04/07 07:38:55;;;;;;;3.78;2.47;;;24.90;89.70;;;;;;5049812;28;20036;-65
2021/04/07 07:41:35;;;;;;;7.30;2.83;;;24.80;89.30;;;;;;5052113;28;20113;-63
2021/04/07 07:44:03;;;;;;;6.07;2.35;;;24.80;89.90;;;;;;5052306;28;20442;-60
2021/04/07 07:46:32;;;;;;;8.38;2.13;;;24.80;89.50;;;;;;5051908;28;20017;-65
2021/04/07 07:49:01;;;;;;;3.50;1.90;;;24.80;90.20;;;;;;5034198;28;20116;-56
2021/04/07 07:51:29;;;;;;;7.85;1.80;;;24.90;90.10;;;;;;5051805;28;20372;-59
2021/04/07 07:53:57;;;;;;;7.47;1.90;;;24.80;89.40;;;;;;5052063;28;20033;-59
2021/04/07 07:56:36;;;;;;;7.32;1.80;;;24.90;90.00;;;;;;5051657;28;20518;-65
2021/04/07 07:59:04;;;;;;;6.82;2.40;;;24.80;89.80;;;;;;5052163;28;20032;-60
2021/04/07 08:01:45;;;;;;;12.23;2.05;;;24.90;90.10;;;;;;5051598;28;20040;-64
2021/04/07 08:04:13;;;;;;;3.75;1.40;;;24.90;90.20;;;;;;5052063;28;20021;-62
2021/04/07 08:06:41;;;;;;;6.22;1.52;;;24.90;90.30;;;;;;5051844;28;20033;-66
2021/04/07 08:09:11;;;;;;;9.00;1.15;;;24.90;90.00;;;;;;5052079;28;20170;-67
2021/04/07 08:11:44;;;;;;;3.35;1.15;;;24.80;89.50;;;;;;5051855;28;20025;-61
2021/04/07 08:14:18;;;;;;;2.95;1.27;;;24.80;89.80;;;;;;5052618;28;20072;-54
2021/04/07 08:16:47;;;;;;;8.35;1.85;;;24.80;89.30;;;;;;5052040;28;20029;-61
2021/04/07 08:19:15;;;;;;;13.82;8.63;;;24.70;89.30;;;;;;5033257;28;20041;-63
2021/04/07 08:21:45;;;;;;;8.73;5.40;;;24.70;89.20;;;;;;5052234;28;20025;-62
2021/04/07 08:24:14;;;;;;;13.63;10.27;;;24.70;88.90;;;;;;5051338;28;20116;-70
2021/04/07 08:26:44;;;;;;;5.82;4.60;;;24.70;88.90;;;;;;5033105;28;20065;-67
2021/04/07 08:29:12;;;;;;;9.55;6.60;;;24.70;88.90;;;;;;5033779;28;20040;-67
2021/04/07 08:31:44;;;;;;;12.73;6.35;;;24.70;88.90;;;;;;5051709;28;20056;-65
2021/04/07 08:34:13;;;;;;;14.52;11.85;;;24.70;89.20;;;;;;5051670;28;20041;-60
2021/04/07 08:36:45;;;;;;;15.85;10.60;;;24.70;90.00;;;;;;5044762;28;20025;-60
2021/04/07 08:39:21;;;;;;;15.57;8.30;;;24.70;90.10;;;;;;5042535;28;20125;-57
2021/04/07 08:41:48;;;;;;;32.38;25.38;;;24.70;90.20;;;;;;5039034;28;20618;-60
2021/04/07 08:44:17;;;;;;;11.90;7.43;;;24.70;90.20;;;;;;5039869;28;20586;-59
2021/04/07 08:46:50;;;;;;;27.02;6.57;;;24.70;90.00;;;;;;5040718;28;20056;-57
2021/04/07 08:49:47;;;;;;;13.45;5.20;;;24.70;90.90;;;;;;5035070;28;20033;-61
2021/04/07 08:52:22;;;;;;;15.38;6.07;;;24.70;90.30;;;;;;5041929;28;20029;-56
2021/04/07 08:54:51;;;;;;;14.13;7.22;;;24.70;90.60;;;;;;5051241;28;20053;-58
2021/04/07 08:57:37;;;;;;;19.33;12.55;;;24.70;91.20;;;;;;5041651;28;20112;-59
2021/04/07 09:00:26;;;;;;;18.40;8.77;;;24.70;91.40;;;;;;5044323;28;20055;-60
2021/04/07 09:02:54;;;;;;;15.90;6.63;;;24.70;91.50;;;;;;5034081;28;20057;-59
2021/04/07 09:05:43;;;;;;;13.43;6.38;;;24.70;91.10;;;;;;5041479;28;20336;-54
2021/04/07 09:08:19;;;;;;;12.80;8.55;;;24.70;91.70;;;;;;5043678;28;20048;-60
2021/04/07 09:10:51;;;;;;;19.08;6.50;;;24.70;91.70;;;;;;5036117;28;20025;-59
2021/04/07 09:13:32;;;;;;;13.85;5.55;;;24.60;91.60;;;;;;5034579;28;20043;-59
2021/04/07 09:16:04;;;;;;;9.85;4.28;;;24.60;91.50;;;;;;5040126;28;20025;-58
2021/04/07 09:18:43;;;;;;;10.75;4.43;;;24.40;91.70;;;;;;5033661;28;20387;-62
2021/04/07 09:21:20;;;;;;;9.63;4.10;;;24.40;92.20;;;;;;5039795;28;20150;-56
2021/04/07 09:23:51;;;;;;;12.23;4.25;;;24.40;92.60;;;;;;5035038;28;20476;-59
2021/04/07 09:26:22;;;;;;;9.93;4.85;;;24.40;92.90;;;;;;5044209;28;20029;-59
2021/04/07 09:28:51;;;;;;;14.48;4.78;;;24.30;93.00;;;;;;5041466;28;20044;-54
2021/04/07 09:31:26;;;;;;;21.38;5.00;;;24.40;93.20;;;;;;5039370;28;20496;-62
2021/04/07 09:33:56;;;;;;;18.00;3.80;;;24.50;93.70;;;;;;5037285;28;20164;-60
2021/04/07 09:36:35;;;;;;;7.07;2.95;;;24.50;92.90;;;;;;5037409;28;20092;-55
2021/04/07 09:39:08;;;;;;;14.07;4.00;;;24.40;92.00;;;;;;5039383;28;20037;-59
2021/04/07 09:41:39;;;;;;;11.48;3.47;;;24.30;92.10;;;;;;5040719;28;20057;-51
2021/04/07 09:44:08;;;;;;;7.97;2.60;;;24.30;91.90;;;;;;5035216;28;20034;-59
2021/04/07 09:46:36;;;;;;;14.02;3.00;;;24.30;92.00;;;;;;5022424;28;20025;-58
2021/04/07 09:49:10;;;;;;;14.30;3.28;;;24.30;91.90;;;;;;5036415;28;20455;-62
2021/04/07 09:51:50;;;;;;;9.48;2.75;;;24.20;92.00;;;;;;5040697;28;20021;-53
2021/04/07 09:54:19;;;;;;;13.95;3.00;;;24.10;92.30;;;;;;5038484;28;20076;-59
2021/04/07 09:56:56;;;;;;;11.07;2.72;;;24.10;92.40;;;;;;5041087;28;20033;-60
2021/04/07 09:59:41;;;;;;;9.57;2.88;;;24.10;92.60;;;;;;5019212;28;20036;-57
2021/04/07 10:02:29;;;;;;;7.70;2.60;;;24.10;92.60;;;;;;5036137;28;20819;-57
2021/04/07 10:04:58;;;;;;;11.75;2.45;;;24.10;92.50;;;;;;5037668;28;20033;-58
2021/04/07 10:07:31;;;;;;;8.10;2.92;;;24.10;93.00;;;;;;5035666;28;20042;-59
2021/04/07 10:10:00;;;;;;;7.88;3.40;;;24.10;93.10;;;;;;5041642;28;20036;-59
2021/04/07 10:12:35;;;;;;;9.50;3.03;;;24.00;93.50;;;;;;5017589;28;20024;-59
2021/04/07 10:15:05;;;;;;;17.02;3.60;;;24.00;93.40;;;;;;5043452;28;20048;-61
2021/04/07 10:17:34;;;;;;;13.00;3.15;;;24.00;93.70;;;;;;5036388;28;20109;-58
2021/04/07 10:20:17;;;;;;;9.80;3.25;;;24.10;93.80;;;;;;5044635;28;20029;-59
2021/04/07 10:22:49;;;;;;;8.57;3.05;;;24.10;93.80;;;;;;5024225;28;20025;-58
2021/04/07 10:25:19;;;;;;;;;;;24.10;93.90;;;;;;5021870;28;20044;-59
2021/04/07 10:27:47;;;;;;;9.82;3.00;;;24.10;93.80;;;;;;5041240;28;20533;-57
2021/04/07 10:30:17;;;;;;;11.95;3.55;;;24.10;93.70;;;;;;5026370;28;20029;-59
2021/04/07 10:32:51;;;;;;;12.43;3.03;;;24.00;93.50;;;;;;5039772;28;20040;-55
2021/04/07 10:35:26;;;;;;;15.63;3.92;;;24.00;93.80;;;;;;5036323;28;20026;-59
2021/04/07 10:38:04;;;;;;;10.13;2.85;;;24.00;94.00;;;;;;5037828;28;20075;-61
2021/04/07 10:40:38;;;;;;;10.52;2.75;;;24.00;94.10;;;;;;5035193;28;20045;-61
2021/04/07 10:43:39;;;;;;;9.85;2.97;;;24.00;93.90;;;;;;5031232;28;20407;-60
2021/04/07 10:46:09;;;;;;;11.77;3.00;;;23.90;93.70;;;;;;5036591;28;20116;-61
2021/04/07 10:48:39;;;;;;;9.20;2.95;;;23.90;93.70;;;;;;5039538;28;20375;-54
2021/04/07 10:51:08;;;;;;;9.00;2.88;;;23.90;94.00;;;;;;5019169;28;20079;-62
2021/04/07 10:53:38;;;;;;;6.68;2.50;;;23.90;93.70;;;;;;5018889;28;20060;-61
2021/04/07 10:56:17;;;;;;;8.30;2.88;;;23.90;93.50;;;;;;5030638;28;20025;-65
2021/04/07 10:58:51;;;;;;;8.60;2.95;;;23.90;93.40;;;;;;5039752;28;20035;-58
2021/04/07 11:01:27;;;;;;;9.27;2.88;;;23.90;93.30;;;;;;5036431;28;20408;-54
2021/04/07 11:03:55;;;;;;;10.38;2.65;;;23.90;93.30;;;;;;5036469;28;20372;-64
2021/04/07 11:06:26;;;;;;;9.77;2.88;;;23.90;93.30;;;;;;5037448;28;20495;-62
2021/04/07 11:08:54;;;;;;;8.25;3.00;;;23.80;93.20;;;;;;5035424;28;20128;-64
2021/04/07 11:11:25;;;;;;;6.47;2.30;;;23.90;93.20;;;;;;5040969;28;20051;-61
2021/04/07 11:13:54;;;;;;;7.72;2.38;;;23.80;93.20;;;;;;5022031;28;20033;-62
2021/04/07 11:16:32;;;;;;;8.27;2.53;;;23.80;93.20;;;;;;5018564;28;20042;-64
2021/04/07 11:19:00;;;;;;;11.10;2.45;;;23.80;93.10;;;;;;5031092;28;20029;-57
2021/04/07 11:21:28;;;;;;;7.00;2.58;;;23.80;93.10;;;;;;5044671;28;20108;-55
2021/04/07 11:23:55;;;;;;;7.43;2.17;;;23.80;93.10;;;;;;5035793;28;20497;-57
2021/04/07 11:26:22;;;;;;;7.80;2.50;;;23.80;93.10;;;;;;5036163;28;20025;-54
2021/04/07 11:28:50;;;;;;;7.25;2.55;;;23.80;93.00;;;;;;5041373;28;20032;-63
2021/04/07 11:31:23;;;;;;;5.35;2.22;;;23.80;93.00;;;;;;5024247;28;20021;-57
2021/04/07 11:33:52;;;;;;;8.38;2.30;;;23.80;93.00;;;;;;5036170;28;20036;-52
2021/04/07 11:36:27;;;;;;;8.98;2.08;;;23.80;93.00;;;;;;5038442;28;20025;-53
2021/04/07 11:39:10;;;;;;;5.68;2.63;;;23.80;93.00;;;;;;5038330;28;20056;-58
2021/04/07 11:42:02;;;;;;;5.35;2.33;;;23.70;92.90;;;;;;5040011;28;20049;-58
2021/04/07 11:44:30;;;;;;;5.22;2.20;;;23.70;92.90;;;;;;5036421;28;20037;-54
2021/04/07 11:46:59;;;;;;;6.53;2.47;;;23.70;92.90;;;;;;5040625;28;20033;-55
2021/04/07 11:49:27;;;;;;;9.65;1.92;;;23.70;92.90;;;;;;5029030;28;20071;-60
2021/04/07 11:51:55;;;;;;;5.20;2.15;;;23.70;92.90;;;;;;5034125;28;20107;-62
2021/04/07 11:54:22;;;;;;;5.25;2.08;;;23.70;92.90;;;;;;5021633;28;20196;-54
2021/04/07 11:56:50;;;;;;;6.07;2.38;;;23.70;92.90;;;;;;5035256;28;20308;-56
2021/04/07 11:59:20;;;;;;;4.70;2.08;;;23.70;92.90;;;;;;5042363;28;20493;-54
2021/04/07 12:01:50;;;;;;;6.30;2.35;;;23.60;92.90;;;;;;5038324;28;20028;-61
2021/04/07 12:04:19;;;;;;;6.05;2.53;;;23.60;92.90;;;;;;5037356;28;20021;-60
2021/04/07 12:06:47;;;;;;;3.70;1.88;;;23.60;92.90;;;;;;5035875;28;20025;-61
2021/04/07 12:09:14;;;;;;;6.28;1.85;;;23.60;92.90;;;;;;5041922;28;20045;-58
2021/04/07 12:11:42;;;;;;;5.68;2.13;;;23.60;92.90;;;;;;5043055;28;20030;-58
2021/04/07 12:14:10;;;;;;;7.32;2.38;;;23.50;93.00;;;;;;5021715;28;20025;-58
2021/04/07 12:16:38;;;;;;;5.55;2.35;;;23.50;93.00;;;;;;5042922;28;20025;-57
2021/04/07 12:19:10;;;;;;;8.27;2.63;;;23.50;93.00;;;;;;5038614;28;20033;-53
2021/04/07 12:21:41;;;;;;;6.68;2.53;;;23.50;93.00;;;;;;5041153;28;20116;-60
2021/04/07 12:24:09;;;;;;;4.67;2.00;;;23.50;93.00;;;;;;5037260;28;20032;-61
2021/04/07 12:26:37;;;;;;;4.97;2.30;;;23.50;92.90;;;;;;5047347;28;20025;-63
2021/04/07 12:29:04;;;;;;;5.53;2.33;;;23.50;92.90;;;;;;5042803;28;20049;-57
2021/04/07 12:31:32;;;;;;;3.58;1.67;;;23.50;92.90;;;;;;5041211;28;20029;-58
2021/04/07 12:34:00;;;;;;;6.57;2.50;;;23.50;92.90;;;;;;5025780;28;20037;-54
2021/04/07 12:36:32;;;;;;;8.73;1.88;;;23.40;92.90;;;;;;5040448;28;20033;-67
2021/04/07 12:39:01;;;;;;;4.50;1.88;;;23.40;92.90;;;;;;5035150;28;20029;-59
2021/04/07 12:41:35;;;;;;;6.93;2.13;;;23.40;92.90;;;;;;5042428;28;20040;-66
2021/04/07 12:44:02;;;;;;;8.48;2.67;;;23.40;92.90;;;;;;5036986;28;20099;-63
2021/04/07 12:46:30;;;;;;;8.10;2.65;;;23.40;92.90;;;;;;5043461;28;20033;-58
2021/04/07 12:48:57;;;;;;;5.28;2.40;;;23.40;92.90;;;;;;5039006;28;20068;-56
2021/04/07 12:51:25;;;;;;;7.18;2.42;;;23.40;92.80;;;;;;5017088;28;20032;-57
2021/04/07 12:53:53;;;;;;;5.03;2.03;;;23.40;92.80;;;;;;5035360;28;20029;-61
2021/04/07 12:56:21;;;;;;;6.28;2.17;;;23.40;92.80;;;;;;5046689;28;20055;-61